Aérodrome :
LOGIN :

S'inscrire | Disclaimer

   EN    FR    IT 

 










Légende :    VFR   VFR Marginal   IFR   IFR Intensif   IFR Très Intensif
Visi : 
Plafond : 
>= 8 km
>= 3000ft
5 à 8 km
1000 à 3000 ft
1500m à 5 km
500 à 1000 ft
800 à 1500m
200 à 500 ft
< 800m
< 200 ft
Symboles :   Orages  Brouillard  Fortes neiges  Fortes précipitations  Vent > 20 kt
SIGMETs :   Divers  Orages  Givrage  Turbulence  Onde Orograph.  Cendres Volcan.






- Altitude de l'aérodrome : 65 ft
- Code IATA : PMO


LICJ - Palermo Punta Raisi

DERNIER METAR :
  • 221950Z 07007KT CAVOK 12/02 Q1031

METARs EXPIRÉS :
  • 221920Z 07009KT CAVOK 12/03 Q1031
  • 221850Z 07011KT CAVOK 13/04 Q1030
  • 221820Z 06014KT CAVOK 14/04 Q1030
  • 221750Z 07014KT CAVOK 14/06 Q1030
  • 221720Z 07014KT CAVOK 14/06 Q1029

TAF TAF LICJ
Valide du 22 à 18h jusqu'au 23 à 18h UTC


221700Z 2218/2318 03015KT CAVOK
BECMG 2220/2222 18006KT
BECMG 2309/2311 01010KT
BECMG 2316/2318 20007KT



MET'MAP, la Météo Aéronautique d'un coup d'oeil ! - Copyright ORBIFLY Décembre 2007 - Disclaimer

ORBIFLY MET'MAP TEAM :

Programmation & Développement : Alexandra Zaïnal
Sur une idée originale de : Baudouin d'Aumeries
Assistance à la programmation : Marc-Olivier Méhu
Soutien technique & logistique : Manuel Goepfert

Contact : metmap@orbifly.com




SOURCES & CREDITS :

   NOAA